LHPR/QGY METAR and TAF weather

Enter ICAO airport designator
Station Type Date Time Source
LHPR METAR 2022/09/28 19:15 UTC NOAA

LHPR 281915Z AUTO VRB02KT 9999 OVC039 15/12 Q1001


Station Type Date Time Source
LHPR Decoded METAR 2022/09/28 19:15 UTC NOAA

Station name not available
Sep 28, 2022 - 03:15 PM EDT / 2022.09.28 1915 UTC
Wind: Variable at 2 MPH (2 KT):0
Visibility: greater than 7 mile(s):0
Sky conditions: overcast
Temperature: 59 F (15 C)
Dew Point: 53 F (12 C)
Relative Humidity: 82%
Pressure (altimeter): 29.56 in. Hg (1001 hPa)
ob: LHPR 281915Z AUTO VRB02KT 9999 OVC039 15/12 Q1001
cycle: 19

Station Type Date Time Source
LHPR TAF UTC NOAA

Error!

Example: see airport list